Time;durP1;ratioP1;P1;durP2;ratioP2;P2;SDS_P1;SDS_P2;PMS_P1;PMS_P2;Temp;Humidity;BMP_temperature;BMP_pressure;BME280_temperature;BME280_humidity;BME280_pressure;Samples;Min_cycle;Max_cycle;Signal;HPM_P1;HPM_P2
2023/01/05 00:01:14;;;;;;;0.95;0.75;;;;;;;13.43;70.46;97563.44;4944731;28;20624;-76
2023/01/05 00:03:40;;;;;;;0.73;0.70;;;;;;;13.18;71.27;97561.41;4946110;28;20266;-75
2023/01/05 00:06:11;;;;;;;0.65;0.52;;;;;;;13.04;71.93;97555.84;4942939;28;20199;-75
2023/01/05 00:08:37;;;;;;;0.70;0.70;;;;;;;13.02;72.19;97545.66;4934363;28;20192;-76
2023/01/05 00:22:29;;;;;;;1.95;0.60;;;;;;;13.29;71.58;97526.47;4944896;28;20265;-76
2023/01/05 00:24:56;;;;;;;0.95;0.60;;;;;;;13.42;71.46;97526.06;4959424;28;20544;-76
2023/01/05 00:27:21;;;;;;;0.70;0.70;;;;;;;13.26;71.56;97522.53;4958782;28;20184;-76
2023/01/05 00:29:47;;;;;;;0.65;0.60;;;;;;;13.28;71.74;97517.03;4946864;28;20701;-75
2023/01/05 00:32:13;;;;;;;1.35;0.70;;;;;;;13.46;71.23;97528.94;4944953;28;20200;-76
2023/01/05 00:34:38;;;;;;;0.98;0.70;;;;;;;13.16;72.16;97517.25;4907990;28;20305;-76
2023/01/05 00:37:03;;;;;;;0.60;0.60;;;;;;;13.44;71.12;97520.56;4946787;28;20674;-75
2023/01/05 00:39:29;;;;;;;0.98;0.88;;;;;;;13.04;72.60;97524.47;4950459;28;20199;-75
2023/01/05 00:41:54;;;;;;;1.55;1.25;;;;;;;12.97;73.47;97510.81;4914692;28;20288;-76
2023/01/05 00:44:19;;;;;;;1.20;1.10;;;;;;;13.14;72.64;97508.06;4945763;28;20275;-76
2023/01/05 00:46:45;;;;;;;1.23;1.02;;;;;;;13.36;72.37;97513.97;4944572;28;20378;-75
2023/01/05 00:49:10;;;;;;;1.40;1.30;;;;;;;13.26;72.45;97511.28;4945313;28;20265;-75
2023/01/05 00:51:35;;;;;;;1.50;1.23;;;;;;;13.37;72.27;97501.69;4964668;28;20255;-75
2023/01/05 00:54:00;;;;;;;1.20;1.10;;;;;;;13.72;71.06;97513.34;4964577;28;20336;-76
2023/01/05 00:56:26;;;;;;;1.55;1.45;;;;;;;13.62;71.21;97496.59;4945552;28;20254;-76
2023/01/05 00:58:53;;;;;;;1.58;1.48;;;;;;;13.68;71.23;97495.56;4931046;28;20609;-75
2023/01/05 01:01:18;;;;;;;1.70;1.30;;;;;;;13.57;71.71;97480.88;4948826;28;20169;-76
2023/01/05 01:03:44;;;;;;;1.70;1.55;;;;;;;13.44;72.04;97478.72;4950077;28;20713;-76
2023/01/05 01:06:09;;;;;;;2.15;1.35;;;;;;;13.60;71.98;97485.56;4950925;28;20212;-77
2023/01/05 01:08:34;;;;;;;1.50;1.40;;;;;;;13.73;71.31;97491.41;4949963;28;20192;-77
2023/01/05 01:11:07;;;;;;;1.65;1.10;;;;;;;13.96;70.94;97490.13;4953283;28;20071;-75
2023/01/05 01:13:32;;;;;;;1.58;1.30;;;;;;;13.83;70.96;97486.19;4970065;28;20380;-76
2023/01/05 01:16:05;;;;;;;2.45;1.33;;;;;;;13.95;70.76;97486.75;4934101;28;20733;-77
2023/01/05 01:18:30;;;;;;;1.38;1.27;;;;;;;13.76;71.18;97483.00;4951910;28;20203;-77
2023/01/05 01:20:55;;;;;;;0.90;0.90;;;;;;;13.73;71.02;97481.72;4948610;28;20208;-76
2023/01/05 01:23:21;;;;;;;1.00;0.70;;;;;;;13.73;71.25;97483.53;4967863;28;20573;-77
2023/01/05 01:25:46;;;;;;;1.73;0.80;;;;;;;13.82;70.68;97495.84;4948672;28;20818;-75
2023/01/05 01:28:11;;;;;;;0.80;0.70;;;;;;;13.67;71.17;97488.75;4950911;28;20570;-77
2023/01/05 01:30:38;;;;;;;0.80;0.70;;;;;;;13.61;71.57;97502.84;4946791;28;20384;-76
2023/01/05 01:33:03;;;;;;;0.40;0.38;;;;;;;13.70;71.41;97503.16;4929845;28;20307;-76
2023/01/05 01:35:28;;;;;;;1.35;0.60;;;;;;;13.68;70.94;97500.78;4947436;28;20699;-76
2023/01/05 01:37:54;;;;;;;0.50;0.40;;;;;;;13.65;71.26;97503.91;4966478;28;20619;-76
2023/01/05 01:40:19;;;;;;;0.47;0.20;;;;;;;13.75;70.93;97507.63;4946469;28;20361;-76
2023/01/05 01:42:44;;;;;;;0.73;0.43;;;;;;;13.71;71.25;97503.91;4968494;28;20611;-76
2023/01/05 01:45:18;;;;;;;0.40;0.40;;;;;;;13.84;70.91;97499.00;4950366;28;20290;-76
2023/01/05 01:47:51;;;;;;;0.52;0.40;;;;;;;14.05;70.09;97501.66;4935132;28;20239;-77
2023/01/05 01:50:22;;;;;;;0.93;0.40;;;;;;;14.05;70.28;97509.53;4936980;28;20270;-77
2023/01/05 01:52:49;;;;;;;1.40;0.40;;;;;;;13.81;71.02;97498.72;4968137;28;20152;-76
2023/01/05 01:55:15;;;;;;;0.30;0.30;;;;;;;13.46;71.78;97510.63;4912780;28;20273;-76
2023/01/05 01:57:42;;;;;;;0.30;0.30;;;;;;;13.43;72.11;97498.84;4930544;28;20149;-75
2023/01/05 02:00:10;;;;;;;0.55;0.43;;;;;;;13.65;71.10;97511.75;4927034;28;20631;-78
2023/01/05 02:02:35;;;;;;;1.27;0.55;;;;;;;13.63;71.55;97508.63;4912213;28;20249;-76
2023/01/05 02:05:10;;;;;;;0.40;0.40;;;;;;;13.84;70.89;97511.31;4944408;28;20219;-75
2023/01/05 02:07:43;;;;;;;0.80;0.50;;;;;;;13.79;71.25;97503.44;4932532;28;20286;-77
2023/01/05 02:10:09;;;;;;;0.90;0.70;;;;;;;13.79;71.04;97506.84;4932895;28;20635;-76
2023/01/05 02:12:49;;;;;;;0.88;0.80;;;;;;;14.08;70.29;97495.16;4970366;28;20209;-76
2023/01/05 02:15:24;;;;;;;1.58;0.70;;;;;;;13.82;71.16;97505.53;4946783;28;20204;-76
2023/01/05 02:17:52;;;;;;;;;;;;;;;14.10;70.18;97509.53;4946514;28;20180;-76
2023/01/05 02:20:34;;;;;;;0.90;0.80;;;;;;;14.15;70.46;97506.16;4945128;28;20088;-76
2023/01/05 02:23:22;;;;;;;1.20;0.80;;;;;;;14.16;70.56;97499.88;4948373;28;20236;-77
2023/01/05 02:26:26;;;;;;;0.90;0.75;;;;;;;14.31;69.80;97513.00;4968219;28;20674;-75
2023/01/05 02:28:57;;;;;;;1.33;0.88;;;;;;;14.10;70.58;97506.13;4921225;28;20122;-77
2023/01/05 02:32:10;;;;;;;1.77;0.90;;;;;;;14.27;70.43;97498.84;4951529;28;20236;-76
2023/01/05 02:34:42;;;;;;;1.23;0.82;;;;;;;14.28;70.14;97503.03;4941367;28;20220;-77
2023/01/05 02:37:23;;;;;;;1.27;0.75;;;;;;;14.43;69.85;97512.75;4927959;28;20232;-76
2023/01/05 02:39:56;;;;;;;1.77;0.70;;;;;;;14.15;70.78;97516.63;4953372;28;20191;-76
2023/01/05 02:42:23;;;;;;;1.10;0.85;;;;;;;14.29;70.13;97515.09;4948798;28;20156;-76
2023/01/05 02:44:49;;;;;;;0.95;0.70;;;;;;;14.29;70.12;97511.69;4949034;28;20406;-77
2023/01/05 02:47:23;;;;;;;1.67;0.65;;;;;;;14.40;69.78;97513.28;4944911;28;20256;-77
2023/01/05 02:49:50;;;;;;;1.38;0.70;;;;;;;14.35;69.67;97524.53;4957173;28;20195;-76
2023/01/05 02:52:16;;;;;;;2.25;0.90;;;;;;;14.41;69.74;97520.88;4937047;28;20264;-77
2023/01/05 02:54:46;;;;;;;1.42;1.17;;;;;;;14.57;69.47;97521.66;4952072;28;20677;-76
2023/01/05 02:57:45;;;;;;;0.85;0.50;;;;;;;14.59;69.67;97522.22;4941313;28;20201;-76
2023/01/05 03:00:26;;;;;;;;;;;;;;;14.94;68.33;97518.03;4948224;28;20200;-77
2023/01/05 03:02:58;;;;;;;1.65;0.50;;;;;;;14.78;68.79;97514.63;4935060;28;20124;-77
2023/01/05 03:05:54;;;;;;;0.80;0.30;;;;;;;14.57;69.46;97528.75;4958756;28;20050;-77
2023/01/05 03:08:22;;;;;;;0.88;0.40;;;;;;;14.42;70.15;97537.38;4941069;28;20280;-76
2023/01/05 03:13:54;;;;;;;1.42;0.22;;;;;;;14.48;69.94;97538.97;4948597;28;20184;-76
2023/01/05 03:16:33;;;;;;;0.95;0.20;;;;;;;14.14;70.56;97543.88;4933651;28;20318;-77
2023/01/05 03:35:34;;;;;;;3.38;0.50;;;;;;;14.26;69.17;97554.91;4941474;28;20800;-77
2023/01/05 03:38:22;;;;;;;2.90;0.65;;;;;;;14.46;68.37;97566.47;4939923;28;20195;-76
2023/01/05 03:40:50;;;;;;;4.03;0.70;;;;;;;14.23;68.96;97565.88;4958125;28;20311;-76
2023/01/05 03:43:16;;;;;;;2.72;0.50;;;;;;;13.84;68.74;97568.88;4916126;28;20178;-76
2023/01/05 03:45:44;;;;;;;4.43;0.63;;;;;;;13.98;68.41;97579.66;4950648;28;20676;-76
2023/01/05 03:48:09;;;;;;;4.57;1.20;;;;;;;13.36;67.88;97568.13;4950678;28;20195;-75
2023/01/05 03:50:36;;;;;;;6.03;1.75;;;;;;;13.44;67.14;97575.50;4921126;28;20207;-76
2023/01/05 03:53:01;;;;;;;5.38;1.42;;;;;;;13.36;67.11;97578.56;4941177;28;20662;-76
2023/01/05 03:55:27;;;;;;;7.40;1.92;;;;;;;12.99;66.46;97572.28;4943423;28;20308;-76
2023/01/05 03:57:52;;;;;;;8.88;1.77;;;;;;;13.25;65.64;97586.31;4946975;28;20289;-76
2023/01/05 04:00:19;;;;;;;4.90;1.85;;;;;;;13.37;65.77;97588.00;4946747;28;20202;-79
2023/01/05 04:02:45;;;;;;;10.15;1.95;;;;;;;13.05;66.20;97609.69;4926897;28;20071;-76
2023/01/05 04:05:10;;;;;;;7.10;0.93;;;;;;;13.38;65.60;97602.66;4956137;28;20102;-77
2023/01/05 04:07:35;;;;;;;8.77;1.75;;;;;;;13.21;65.21;97600.94;4950016;28;20217;-76
2023/01/05 04:10:01;;;;;;;8.65;1.10;;;;;;;13.08;64.92;97599.53;4936681;28;20360;-77
2023/01/05 04:12:26;;;;;;;10.35;1.90;;;;;;;13.07;64.95;97605.00;4933680;28;20307;-76
2023/01/05 04:14:51;;;;;;;10.27;1.80;;;;;;;12.83;65.55;97615.78;4928928;28;20185;-76
2023/01/05 04:17:17;;;;;;;8.57;2.05;;;;;;;12.90;64.54;97613.78;4958139;28;20645;-76
2023/01/05 04:19:42;;;;;;;8.85;1.75;;;;;;;12.86;64.08;97612.69;4929283;28;20214;-77
2023/01/05 04:22:07;;;;;;;11.07;2.03;;;;;;;12.96;64.54;97608.59;4932454;28;20661;-78
2023/01/05 04:24:42;;;;;;;8.98;2.00;;;;;;;13.02;62.90;97605.78;4948197;28;20098;-76
2023/01/05 04:27:07;;;;;;;7.70;2.22;;;;;;;12.84;62.90;97609.53;4929371;28;20179;-76
2023/01/05 04:29:32;;;;;;;11.45;2.15;;;;;;;12.79;63.58;97596.41;4932362;28;20328;-76
2023/01/05 04:31:58;;;;;;;9.02;1.95;;;;;;;12.87;62.90;97592.56;4961312;28;20289;-76
2023/01/05 04:34:23;;;;;;;7.63;1.23;;;;;;;12.81;63.79;97588.34;4950784;28;20620;-76
2023/01/05 04:36:49;;;;;;;10.88;2.30;;;;;;;12.88;64.27;97594.91;4954422;28;20189;-76
2023/01/05 04:39:14;;;;;;;7.70;1.50;;;;;;;12.97;63.20;97600.50;4947601;28;20312;-76
2023/01/05 04:41:40;;;;;;;7.30;1.63;;;;;;;12.77;63.24;97598.50;4937207;28;20365;-77
2023/01/05 04:44:05;;;;;;;9.48;2.30;;;;;;;13.02;63.23;97604.97;4916502;28;20177;-77
2023/01/05 04:46:31;;;;;;;6.10;1.60;;;;;;;12.92;62.59;97610.91;4963518;28;20239;-76
2023/01/05 04:48:56;;;;;;;7.10;1.65;;;;;;;12.63;62.56;97605.13;4947728;28;20185;-77
2023/01/05 04:51:22;;;;;;;7.57;1.70;;;;;;;12.82;62.38;97601.16;4966751;28;20207;-76
2023/01/05 04:53:47;;;;;;;7.38;1.02;;;;;;;12.78;62.55;97600.06;4948346;28;20654;-75
2023/01/05 04:56:12;;;;;;;6.47;1.10;;;;;;;12.80;63.36;97600.63;4948432;28;20228;-76
2023/01/05 04:58:38;;;;;;;11.15;1.88;;;;;;;13.00;63.40;97601.81;4966364;28;20281;-76
2023/01/05 05:01:03;;;;;;;7.47;1.60;;;;;;;12.76;63.21;97609.97;4963839;28;20396;-76
2023/01/05 05:03:28;;;;;;;9.48;1.92;;;;;;;12.99;62.74;97590.59;4932776;28;20156;-76
2023/01/05 05:05:54;;;;;;;6.90;1.70;;;;;;;12.83;62.15;97591.47;4966386;28;20191;-75
2023/01/05 05:08:19;;;;;;;6.22;2.15;;;;;;;13.02;63.05;97589.28;4933308;28;20196;-76
2023/01/05 05:10:44;;;;;;;8.40;1.65;;;;;;;13.17;62.58;97592.00;4953207;28;20371;-77
2023/01/05 05:13:10;;;;;;;7.60;1.45;;;;;;;13.12;61.72;97602.44;4951723;28;20192;-76
2023/01/05 05:15:35;;;;;;;7.65;1.60;;;;;;;12.94;62.99;97603.59;4943919;28;20217;-76
2023/01/05 05:18:00;;;;;;;5.70;1.60;;;;;;;12.92;62.89;97605.69;4948023;28;20216;-75
2023/01/05 05:20:26;;;;;;;9.15;2.55;;;;;;;12.85;63.33;97611.13;4966715;28;20189;-76
2023/01/05 05:22:51;;;;;;;11.48;1.50;;;;;;;12.83;63.51;97604.53;4965703;28;20654;-75
2023/01/05 05:25:16;;;;;;;7.03;1.52;;;;;;;12.93;63.09;97610.63;4949033;28;20222;-76
2023/01/05 05:27:42;;;;;;;6.85;1.63;;;;;;;12.91;63.72;97612.72;4966655;28;20291;-77
2023/01/05 05:30:08;;;;;;;8.35;1.50;;;;;;;12.92;64.20;97621.38;4967980;28;20206;-76
2023/01/05 05:32:33;;;;;;;8.30;1.35;;;;;;;13.08;63.32;97624.91;4947019;28;20560;-76
2023/01/05 05:34:59;;;;;;;10.65;1.67;;;;;;;12.85;64.08;97628.59;4964869;28;20204;-76
2023/01/05 05:37:24;;;;;;;7.80;1.35;;;;;;;12.96;63.20;97632.13;4948705;28;20211;-76
2023/01/05 05:39:49;;;;;;;7.15;1.63;;;;;;;12.88;62.48;97635.94;4947240;28;20182;-77
2023/01/05 05:42:14;;;;;;;8.50;1.75;;;;;;;12.87;62.12;97632.56;4957132;28;20516;-77
2023/01/05 05:44:40;;;;;;;7.28;1.33;;;;;;;12.92;61.80;97648.28;4927280;28;20705;-77
2023/01/05 05:47:05;;;;;;;12.70;1.80;;;;;;;13.13;61.55;97651.09;4944528;28;20642;-77
2023/01/05 05:49:30;;;;;;;5.55;1.20;;;;;;;13.16;61.51;97649.78;4924574;28;20681;-76
2023/01/05 05:51:56;;;;;;;6.93;1.67;;;;;;;13.12;60.58;97646.88;4950737;28;20301;-76
2023/01/05 05:54:21;;;;;;;8.43;1.15;;;;;;;13.07;61.61;97649.44;4969472;28;20216;-77
2023/01/05 05:56:47;;;;;;;8.05;1.15;;;;;;;13.02;60.52;97660.66;4940917;28;20216;-76
2023/01/05 05:59:12;;;;;;;8.63;2.00;;;;;;;13.14;61.10;97655.25;4933535;28;20243;-76
2023/01/05 06:01:37;;;;;;;10.70;1.92;;;;;;;13.34;60.27;97657.28;4952112;28;20290;-77
2023/01/05 06:04:03;;;;;;;8.05;1.52;;;;;;;13.28;60.43;97663.47;4929194;28;20203;-77
2023/01/05 06:06:28;;;;;;;10.00;2.45;;;;;;;13.22;60.51;97669.72;4950101;28;20728;-76
2023/01/05 06:08:54;;;;;;;8.77;1.50;;;;;;;13.01;60.96;97666.13;4954595;28;20558;-76
2023/01/05 06:11:19;;;;;;;8.18;1.83;;;;;;;13.11;60.46;97684.53;4955105;28;20278;-76
2023/01/05 06:13:45;;;;;;;6.88;1.38;;;;;;;13.21;59.89;97679.41;4931260;28;20623;-75
2023/01/05 06:16:10;;;;;;;8.05;1.92;;;;;;;13.20;59.86;97685.66;4917402;28;20287;-76
2023/01/05 06:18:35;;;;;;;7.32;1.35;;;;;;;13.30;59.74;97680.50;4931858;28;20200;-77
2023/01/05 06:21:01;;;;;;;6.75;2.00;;;;;;;13.08;59.49;97674.56;4933464;28;20174;-76
2023/01/05 06:23:26;;;;;;;7.82;1.80;;;;;;;13.10;59.85;97686.34;4919194;28;20165;-74
2023/01/05 06:25:51;;;;;;;7.13;2.15;;;;;;;13.15;59.24;97688.22;4932918;28;20199;-75
2023/01/05 06:28:17;;;;;;;9.75;1.95;;;;;;;13.37;58.96;97685.56;4951202;28;20249;-76
2023/01/05 06:30:42;;;;;;;6.20;1.60;;;;;;;13.33;59.17;97683.69;4968365;28;20169;-77
2023/01/05 06:33:07;;;;;;;7.20;1.75;;;;;;;13.26;59.25;97689.09;4931896;28;20548;-76
2023/01/05 06:35:33;;;;;;;7.32;2.05;;;;;;;13.06;58.95;97687.09;4951753;28;20158;-76
2023/01/05 06:37:59;;;;;;;6.72;1.15;;;;;;;13.26;59.33;97700.34;4948955;28;20221;-77
2023/01/05 06:40:24;;;;;;;6.28;1.58;;;;;;;13.26;59.12;97700.34;4929012;28;20213;-76
2023/01/05 06:42:50;;;;;;;6.10;1.45;;;;;;;13.25;59.19;97713.69;4947407;28;20200;-77
2023/01/05 06:45:15;;;;;;;10.50;1.27;;;;;;;13.25;59.10;97716.28;4949176;28;20235;-76
2023/01/05 06:47:43;;;;;;;11.13;1.90;;;;;;;13.32;58.95;97713.50;4948394;28;20274;-77
2023/01/05 06:50:08;;;;;;;7.53;1.98;;;;;;;13.48;58.52;97718.59;4949688;28;20183;-77
2023/01/05 06:52:35;;;;;;;8.43;2.33;;;;;;;13.57;58.79;97718.94;4937981;28;20191;-77
2023/01/05 06:55:08;;;;;;;6.03;1.25;;;;;;;13.67;59.33;97719.03;4949460;28;20208;-77
2023/01/05 06:57:35;;;;;;;7.70;1.30;;;;;;;13.53;59.47;97725.69;4944552;28;20214;-77
2023/01/05 07:00:02;;;;;;;8.13;1.63;;;;;;;13.56;59.24;97735.69;4932755;28;20801;-77
2023/01/05 07:02:27;;;;;;;8.88;2.00;;;;;;;13.57;59.08;97724.19;4967025;28;20581;-77
2023/01/05 07:04:53;;;;;;;4.82;1.38;;;;;;;13.64;58.89;97727.38;4950162;28;20196;-77
2023/01/05 07:07:18;;;;;;;6.03;1.52;;;;;;;13.47;59.51;97731.94;4931376;28;20232;-77
2023/01/05 07:09:48;;;;;;;9.10;1.48;;;;;;;13.52;59.06;97729.38;4943895;28;20128;-77
2023/01/05 07:12:13;;;;;;;7.47;1.13;;;;;;;13.61;59.28;97735.72;4951111;28;20733;-77
2023/01/05 07:14:38;;;;;;;6.85;1.27;;;;;;;13.53;59.53;97730.94;4967204;28;20372;-77
2023/01/05 07:17:04;;;;;;;10.13;1.33;;;;;;;13.45;60.01;97721.72;4967286;28;20181;-77
2023/01/05 07:19:29;;;;;;;11.00;1.30;;;;;;;13.52;59.99;97721.53;4967515;28;20158;-77
2023/01/05 07:21:54;;;;;;;10.95;1.42;;;;;;;13.40;60.01;97732.16;4949132;28;20302;-77
2023/01/05 07:24:20;;;;;;;8.55;1.63;;;;;;;13.51;60.04;97733.03;4912958;28;20382;-76
2023/01/05 07:26:45;;;;;;;8.68;1.73;;;;;;;13.36;60.65;97732.88;4962727;28;20290;-76
2023/01/05 07:29:10;;;;;;;8.05;1.10;;;;;;;13.23;60.83;97739.25;4948195;28;20216;-75
2023/01/05 07:31:36;;;;;;;10.13;1.48;;;;;;;13.52;60.19;97741.66;4913798;28;20166;-77
2023/01/05 07:34:01;;;;;;;9.20;2.30;;;;;;;13.51;60.14;97738.25;4925505;28;20198;-77
2023/01/05 07:36:26;;;;;;;11.70;1.65;;;;;;;13.44;60.85;97741.06;4932514;28;20166;-77
2023/01/05 07:38:52;;;;;;;6.45;1.92;;;;;;;13.51;61.18;97740.09;4947171;28;20637;-76
2023/01/05 07:41:18;;;;;;;5.85;1.40;;;;;;;13.49;60.85;97748.19;4958243;28;20651;-77
2023/01/05 07:43:43;;;;;;;7.88;1.52;;;;;;;13.39;60.70;97742.84;4946156;28;20311;-76
2023/01/05 07:46:09;;;;;;;6.75;1.13;;;;;;;13.40;61.44;97749.66;4947809;28;20716;-77
2023/01/05 07:48:34;;;;;;;4.88;0.90;;;;;;;13.43;60.54;97746.53;4947821;28;20275;-76
2023/01/05 07:51:02;;;;;;;6.68;1.27;;;;;;;13.54;60.80;97748.22;4936464;28;20278;-77
2023/01/05 07:53:33;;;;;;;8.15;1.27;;;;;;;13.51;60.28;97748.72;4946483;28;20203;-75
2023/01/05 07:56:00;;;;;;;6.00;1.63;;;;;;;13.51;60.79;97751.34;4931822;28;20249;-76
2023/01/05 07:58:26;;;;;;;8.57;1.85;;;;;;;13.32;61.05;97755.34;4949958;28;20174;-77
2023/01/05 08:00:51;;;;;;;9.60;2.67;;;;;;;13.46;60.64;97751.28;4929635;28;20243;-76
2023/01/05 08:03:17;;;;;;;6.93;1.95;;;;;;;13.50;61.07;97757.59;4931076;28;20285;-76
2023/01/05 08:05:43;;;;;;;6.75;1.60;;;;;;;13.37;60.77;97764.03;4948088;28;20703;-76
2023/01/05 08:08:08;;;;;;;10.38;2.33;;;;;;;13.49;61.23;97766.50;4964042;28;20192;-77
2023/01/05 08:10:34;;;;;;;7.80;1.67;;;;;;;13.49;61.18;97776.97;4928692;28;20197;-74
2023/01/05 08:15:49;;;;;;;9.23;2.03;;;;;;;13.56;61.06;97784.59;4932369;28;20199;-77
2023/01/05 08:18:15;;;;;;;11.52;1.75;;;;;;;13.50;61.38;97788.97;4926832;28;20271;-77
2023/01/05 08:20:40;;;;;;;10.10;1.52;;;;;;;13.56;61.10;97792.47;4933466;28;20294;-77
2023/01/05 08:23:06;;;;;;;5.80;1.35;;;;;;;13.58;60.82;97791.16;4966361;28;20291;-75
2023/01/05 08:25:31;;;;;;;8.93;2.22;;;;;;;13.50;61.30;97783.75;4947028;28;20347;-76
2023/01/05 08:27:58;;;;;;;10.55;1.45;;;;;;;13.59;61.21;97792.75;4945805;28;20212;-77
2023/01/05 08:30:23;;;;;;;6.35;1.55;;;;;;;13.44;61.92;97805.69;4940196;28;20202;-76
2023/01/05 08:32:48;;;;;;;6.32;1.40;;;;;;;13.47;61.34;97803.38;4936632;28;20164;-77
2023/01/05 08:35:14;;;;;;;9.23;1.50;;;;;;;13.61;61.62;97795.13;4930164;28;20236;-77
2023/01/05 08:37:39;;;;;;;9.63;2.78;;;;;;;13.75;60.92;97811.97;4915980;28;20114;-76
2023/01/05 08:40:05;;;;;;;8.13;1.30;;;;;;;13.81;61.01;97823.28;4966496;28;20274;-77
2023/01/05 08:42:31;;;;;;;8.77;2.42;;;;;;;13.79;60.60;97818.28;4943181;28;20247;-77
2023/01/05 08:44:56;;;;;;;9.93;2.08;;;;;;;13.72;60.87;97817.69;4929166;28;20223;-76
2023/01/05 08:47:21;;;;;;;9.77;3.10;;;;;;;13.75;60.58;97832.91;4927342;28;20115;-76
2023/01/05 08:49:48;;;;;;;10.57;1.80;;;;;;;13.71;60.77;97818.75;4965475;28;20165;-77
2023/01/05 08:52:14;;;;;;;6.95;1.63;;;;;;;13.82;60.90;97815.19;4945642;28;20618;-77
2023/01/05 08:54:39;;;;;;;8.30;2.03;;;;;;;13.78;60.60;97818.56;4968175;28;20198;-76
2023/01/05 08:57:04;;;;;;;10.73;2.55;;;;;;;13.77;60.51;97820.38;4969304;28;20299;-76
2023/01/05 08:59:30;;;;;;;3.97;1.85;;;;;;;13.58;61.54;97822.56;4930839;28;20168;-77
2023/01/05 09:01:55;;;;;;;6.95;2.10;;;;;;;13.57;61.79;97813.16;4948305;28;20173;-76
2023/01/05 09:04:20;;;;;;;8.93;2.58;;;;;;;13.67;61.09;97820.28;4965495;28;20269;-76
2023/01/05 09:06:46;;;;;;;10.88;2.45;;;;;;;13.76;61.05;97820.63;4948206;28;20330;-77
2023/01/05 09:09:11;;;;;;;10.93;2.17;;;;;;;13.72;60.98;97815.09;4929163;28;20290;-76
2023/01/05 09:11:36;;;;;;;7.32;2.40;;;;;;;13.77;60.78;97819.59;4930985;28;20593;-77
2023/01/05 09:14:02;;;;;;;7.57;1.80;;;;;;;13.63;61.32;97824.44;4946490;28;20201;-77
2023/01/05 09:16:30;;;;;;;6.85;2.70;;;;;;;13.79;61.01;97813.03;4943855;28;20765;-77
2023/01/05 09:18:57;;;;;;;10.38;1.88;;;;;;;13.78;61.10;97818.56;4935715;28;20282;-76
2023/01/05 09:21:22;;;;;;;12.95;2.40;;;;;;;13.79;60.84;97827.97;4917669;28;20201;-76
2023/01/05 09:23:48;;;;;;;8.63;2.38;;;;;;;13.71;61.23;97828.41;4953078;28;20525;-76
2023/01/05 09:26:14;;;;;;;9.50;1.30;;;;;;;13.78;60.65;97834.25;4931711;28;20193;-77
2023/01/05 09:28:41;;;;;;;13.38;2.38;;;;;;;13.80;60.34;97834.81;4953674;28;20208;-76
2023/01/05 09:31:10;;;;;;;11.57;2.10;;;;;;;13.79;60.88;97841.06;4933517;28;20232;-77
2023/01/05 09:33:36;;;;;;;9.32;2.50;;;;;;;13.80;60.94;97837.41;4952127;28;20342;-77
2023/01/05 09:36:02;;;;;;;8.10;2.35;;;;;;;13.84;60.43;97839.25;4939961;28;20351;-76
2023/01/05 09:38:28;;;;;;;8.20;2.70;;;;;;;13.86;60.55;97849.50;4959033;28;20316;-75
2023/01/05 09:40:55;;;;;;;6.07;1.65;;;;;;;13.89;60.34;97846.38;4924423;28;20209;-76
2023/01/05 09:43:28;;;;;;;10.32;1.85;;;;;;;14.07;60.04;97860.13;4950268;28;20193;-77
2023/01/05 09:45:54;;;;;;;12.18;1.98;;;;;;;13.90;59.72;97855.81;4930573;28;20195;-76
2023/01/05 09:48:20;;;;;;;9.13;2.22;;;;;;;13.95;60.47;97860.31;4943013;28;20457;-77
2023/01/05 09:50:48;;;;;;;9.93;2.25;;;;;;;14.08;59.64;97857.28;4933805;28;20323;-76
2023/01/05 09:53:15;;;;;;;7.35;1.80;;;;;;;14.00;59.47;97861.16;4928291;28;20667;-75
2023/01/05 09:55:41;;;;;;;9.75;1.90;;;;;;;14.07;59.67;97862.75;4950285;28;20196;-77
2023/01/05 09:58:13;;;;;;;7.97;1.95;;;;;;;13.93;59.97;97855.34;4949447;28;20204;-76
2023/01/05 10:00:41;;;;;;;9.63;3.13;;;;;;;14.08;59.38;97861.72;4950809;28;20610;-76
2023/01/05 10:03:10;;;;;;;6.70;2.10;;;;;;;13.99;59.74;97845.69;4941220;28;20200;-76
2023/01/05 10:05:41;;;;;;;8.68;1.88;;;;;;;14.05;59.82;97848.09;4948660;28;20336;-76
2023/01/05 10:08:22;;;;;;;9.23;1.88;;;;;;;14.22;59.54;97855.03;4945387;28;20204;-77
2023/01/05 10:13:58;;;;;;;12.40;2.95;;;;;;;14.29;59.52;97862.66;4953031;28;20204;-77
2023/01/05 10:16:24;;;;;;;14.77;2.42;;;;;;;13.88;61.52;97857.91;4931858;28;20185;-77
2023/01/05 10:18:49;;;;;;;11.15;1.83;;;;;;;14.11;59.45;97856.78;4946904;28;20259;-76
2023/01/05 10:21:39;;;;;;;8.57;1.80;;;;;;;14.16;59.74;97853.41;4941032;28;20625;-74
2023/01/05 10:24:23;;;;;;;6.25;2.70;;;;;;;14.24;59.38;97852.97;4929667;28;20162;-76
2023/01/05 10:27:12;;;;;;;10.65;1.67;;;;;;;14.12;59.31;97860.19;4946593;28;20296;-75
2023/01/05 10:29:44;;;;;;;10.75;2.05;;;;;;;14.26;59.19;97866.59;4971537;28;20272;-77
2023/01/05 10:32:18;;;;;;;12.68;2.60;;;;;;;14.23;58.44;97862.63;4929413;28;20627;-76
2023/01/05 10:34:49;;;;;;;7.65;2.83;;;;;;;14.22;59.01;97868.13;4946383;28;20319;-77
2023/01/05 10:37:27;;;;;;;9.52;1.60;;;;;;;14.22;58.71;97857.63;4947756;28;20165;-76
2023/01/05 10:40:04;;;;;;;11.10;2.28;;;;;;;14.15;59.06;97865.69;4964960;28;20318;-76
2023/01/05 10:42:44;;;;;;;11.20;2.22;;;;;;;14.31;59.45;97863.19;4946240;28;20159;-77
2023/01/05 10:45:11;;;;;;;9.63;2.17;;;;;;;14.00;58.75;97870.81;4946316;28;20192;-76
2023/01/05 10:47:37;;;;;;;7.68;1.98;;;;;;;14.03;59.05;97863.28;4931481;28;20262;-76
2023/01/05 10:50:26;;;;;;;11.70;2.70;;;;;;;14.02;57.92;97859.06;4929381;28;20247;-76
2023/01/05 10:52:52;;;;;;;9.98;2.00;;;;;;;13.91;57.76;97864.47;4945439;28;20290;-76
2023/01/05 10:55:19;;;;;;;11.13;2.22;;;;;;;14.09;58.16;97864.09;4917531;28;20351;-76
2023/01/05 10:57:45;;;;;;;9.05;1.80;;;;;;;14.29;57.60;97870.53;4929607;28;20195;-76
2023/01/05 11:00:19;;;;;;;8.55;3.30;;;;;;;14.24;57.39;97879.16;4934103;28;20460;-75
2023/01/05 11:02:56;;;;;;;8.82;1.98;;;;;;;14.26;57.93;97863.97;4928961;28;20310;-76
2023/01/05 11:05:31;;;;;;;14.30;2.20;;;;;;;14.09;57.87;97868.56;4945902;28;20686;-76
2023/01/05 11:08:20;;;;;;;9.15;1.85;;;;;;;14.42;57.21;97873.50;4941518;28;20286;-76
2023/01/05 11:10:56;;;;;;;11.10;2.83;;;;;;;14.40;57.02;97865.09;4915921;28;20200;-76
2023/01/05 11:13:39;;;;;;;8.15;1.88;;;;;;;14.07;57.13;97860.94;4929443;28;20239;-76
2023/01/05 11:16:08;;;;;;;10.23;2.20;;;;;;;14.24;56.95;97855.59;4915659;28;20212;-77
2023/01/05 11:18:52;;;;;;;10.27;1.95;;;;;;;14.51;55.69;97865.19;4947860;28;20585;-77
2023/01/05 11:21:17;;;;;;;10.23;1.73;;;;;;;14.51;55.69;97865.19;4915436;28;20236;-77
2023/01/05 11:23:45;;;;;;;7.95;1.77;;;;;;;14.60;56.14;97858.47;4943870;28;20684;-76
2023/01/05 11:26:34;;;;;;;11.10;2.92;;;;;;;14.50;55.63;97863.63;4966000;28;20306;-76
2023/01/05 11:29:09;;;;;;;11.27;2.33;;;;;;;14.58;56.00;97863.13;4947854;28;20048;-76
2023/01/05 11:31:35;;;;;;;;;;;;;;;14.54;55.20;97872.53;4933345;28;20306;-76
2023/01/05 11:34:27;;;;;;;8.93;2.40;;;;;;;14.53;55.91;97863.09;4939239;28;19962;-76
2023/01/05 11:36:58;;;;;;;13.93;2.33;;;;;;;14.66;55.53;97867.13;4906933;28;20193;-76
2023/01/05 11:39:44;;;;;;;14.52;2.88;;;;;;;14.56;55.50;97873.06;4911777;28;20211;-76
2023/01/05 11:42:14;;;;;;;10.82;2.72;;;;;;;14.47;56.04;97870.13;4948169;28;20599;-76
2023/01/05 11:45:01;;;;;;;11.40;2.83;;;;;;;14.55;56.29;97868.88;4924311;28;20676;-76
2023/01/05 11:47:36;;;;;;;11.65;1.88;;;;;;;14.68;56.18;97865.84;4967001;28;20738;-77
2023/01/05 11:50:13;;;;;;;8.27;2.20;;;;;;;14.35;57.35;97872.94;4947591;28;20192;-76
2023/01/05 11:52:44;;;;;;;11.23;2.05;;;;;;;14.33;57.47;97869.78;4966062;28;20620;-76
2023/01/05 11:55:36;;;;;;;9.82;2.28;;;;;;;14.42;57.56;97867.47;4931770;28;20239;-77
2023/01/05 11:58:14;;;;;;;8.45;1.70;;;;;;;14.49;57.36;97867.25;4931526;28;20272;-77
2023/01/05 12:01:16;;;;;;;14.02;2.38;;;;;;;14.48;58.14;97873.53;4964824;28;20173;-76
2023/01/05 12:04:19;;;;;;;8.68;2.20;;;;;;;14.32;57.95;97878.66;4945675;28;20693;-75
2023/01/05 12:07:12;;;;;;;12.13;2.63;;;;;;;14.44;57.12;97881.13;4966294;28;20246;-77
2023/01/05 12:09:41;;;;;;;5.55;2.13;;;;;;;14.49;56.83;97880.38;4929142;28;20215;-76
2023/01/05 12:12:37;;;;;;;13.40;2.20;;;;;;;14.60;56.32;97877.59;4931695;28;20279;-75
2023/01/05 12:15:24;;;;;;;10.23;1.95;;;;;;;14.49;55.59;97883.00;4929323;28;20204;-77
2023/01/05 12:17:57;;;;;;;10.73;1.67;;;;;;;14.48;56.09;97876.16;4928971;28;20703;-75